sensor_id;sensor_type;location;lat;lon;timestamp;P1;durP1;ratioP1;P2;durP2;ratioP2
16832;SDS011;8533;48.426;10.868;2023-01-01T00:01:39;318.37;;;167.03;;
16832;SDS011;8533;48.426;10.868;2023-01-01T00:04:10;277.10;;;141.47;;
16832;SDS011;8533;48.426;10.868;2023-01-01T00:06:38;302.67;;;152.00;;
16832;SDS011;8533;48.426;10.868;2023-01-01T00:09:06;372.27;;;197.20;;
16832;SDS011;8533;48.426;10.868;2023-01-01T00:11:51;323.15;;;167.40;;
16832;SDS011;8533;48.426;10.868;2023-01-01T00:14:19;308.83;;;163.63;;
16832;SDS011;8533;48.426;10.868;2023-01-01T00:16:46;340.33;;;175.97;;
16832;SDS011;8533;48.426;10.868;2023-01-01T00:19:14;337.83;;;168.97;;
16832;SDS011;8533;48.426;10.868;2023-01-01T00:21:41;306.77;;;158.37;;
16832;SDS011;8533;48.426;10.868;2023-01-01T00:24:11;312.73;;;157.93;;
16832;SDS011;8533;48.426;10.868;2023-01-01T00:26:38;297.17;;;152.50;;
16832;SDS011;8533;48.426;10.868;2023-01-01T00:29:05;309.30;;;155.77;;
16832;SDS011;8533;48.426;10.868;2023-01-01T00:31:33;302.50;;;156.43;;
16832;SDS011;8533;48.426;10.868;2023-01-01T00:34:00;304.50;;;153.30;;
16832;SDS011;8533;48.426;10.868;2023-01-01T00:36:28;312.03;;;159.80;;
16832;SDS011;8533;48.426;10.868;2023-01-01T00:38:56;310.50;;;163.10;;
16832;SDS011;8533;48.426;10.868;2023-01-01T00:41:23;286.20;;;142.97;;
16832;SDS011;8533;48.426;10.868;2023-01-01T00:43:51;301.83;;;151.33;;
16832;SDS011;8533;48.426;10.868;2023-01-01T00:46:18;295.30;;;149.77;;
16832;SDS011;8533;48.426;10.868;2023-01-01T00:48:46;321.90;;;159.27;;
16832;SDS011;8533;48.426;10.868;2023-01-01T00:51:13;300.03;;;150.13;;
16832;SDS011;8533;48.426;10.868;2023-01-01T00:53:40;288.23;;;139.90;;
16832;SDS011;8533;48.426;10.868;2023-01-01T00:56:08;258.63;;;125.23;;
16832;SDS011;8533;48.426;10.868;2023-01-01T00:58:37;248.23;;;121.00;;
16832;SDS011;8533;48.426;10.868;2023-01-01T01:01:04;246.10;;;118.97;;
16832;SDS011;8533;48.426;10.868;2023-01-01T01:03:32;286.47;;;132.63;;
16832;SDS011;8533;48.426;10.868;2023-01-01T01:16:14;168.57;;;86.47;;
16832;SDS011;8533;48.426;10.868;2023-01-01T01:18:45;205.03;;;105.07;;
16832;SDS011;8533;48.426;10.868;2023-01-01T01:21:16;169.87;;;88.27;;
16832;SDS011;8533;48.426;10.868;2023-01-01T01:23:44;127.30;;;62.03;;
16832;SDS011;8533;48.426;10.868;2023-01-01T01:26:14;132.00;;;62.87;;
16832;SDS011;8533;48.426;10.868;2023-01-01T01:28:43;132.07;;;63.83;;
16832;SDS011;8533;48.426;10.868;2023-01-01T01:31:11;142.27;;;65.73;;
16832;SDS011;8533;48.426;10.868;2023-01-01T01:33:41;136.03;;;64.80;;
16832;SDS011;8533;48.426;10.868;2023-01-01T01:36:09;121.20;;;57.40;;
16832;SDS011;8533;48.426;10.868;2023-01-01T01:38:39;125.73;;;60.53;;
16832;SDS011;8533;48.426;10.868;2023-01-01T01:41:07;123.43;;;60.17;;
16832;SDS011;8533;48.426;10.868;2023-01-01T01:48:39;106.65;;;52.10;;
16832;SDS011;8533;48.426;10.868;2023-01-01T01:51:12;97.13;;;50.50;;
16832;SDS011;8533;48.426;10.868;2023-01-01T01:53:43;106.00;;;52.77;;
16832;SDS011;8533;48.426;10.868;2023-01-01T01:56:13;93.57;;;45.43;;
16832;SDS011;8533;48.426;10.868;2023-01-01T01:58:42;102.20;;;46.67;;
16832;SDS011;8533;48.426;10.868;2023-01-01T02:01:09;100.87;;;48.87;;
16832;SDS011;8533;48.426;10.868;2023-01-01T02:03:42;105.33;;;49.13;;
16832;SDS011;8533;48.426;10.868;2023-01-01T02:06:11;94.70;;;46.47;;
16832;SDS011;8533;48.426;10.868;2023-01-01T02:08:39;85.83;;;44.53;;
16832;SDS011;8533;48.426;10.868;2023-01-01T02:11:07;93.57;;;46.37;;
16832;SDS011;8533;48.426;10.868;2023-01-01T02:13:34;96.83;;;48.07;;
16832;SDS011;8533;48.426;10.868;2023-01-01T02:16:06;101.10;;;48.80;;
16832;SDS011;8533;48.426;10.868;2023-01-01T02:21:48;105.40;;;48.30;;
16832;SDS011;8533;48.426;10.868;2023-01-01T02:24:22;90.37;;;46.10;;
16832;SDS011;8533;48.426;10.868;2023-01-01T02:27:09;99.93;;;47.13;;
16832;SDS011;8533;48.426;10.868;2023-01-01T02:29:44;96.73;;;44.47;;
16832;SDS011;8533;48.426;10.868;2023-01-01T02:32:24;101.15;;;47.45;;
16832;SDS011;8533;48.426;10.868;2023-01-01T02:37:23;94.23;;;47.03;;
16832;SDS011;8533;48.426;10.868;2023-01-01T02:39:55;92.53;;;43.97;;
16832;SDS011;8533;48.426;10.868;2023-01-01T02:42:25;91.77;;;45.20;;
16832;SDS011;8533;48.426;10.868;2023-01-01T02:44:54;87.20;;;45.13;;
16832;SDS011;8533;48.426;10.868;2023-01-01T02:47:25;86.97;;;45.70;;
16832;SDS011;8533;48.426;10.868;2023-01-01T02:49:58;84.33;;;43.17;;
16832;SDS011;8533;48.426;10.868;2023-01-01T02:52:44;78.03;;;36.83;;
16832;SDS011;8533;48.426;10.868;2023-01-01T02:55:35;66.80;;;32.97;;
16832;SDS011;8533;48.426;10.868;2023-01-01T03:01:18;82.20;;;38.57;;
16832;SDS011;8533;48.426;10.868;2023-01-01T03:04:19;72.20;;;35.95;;
16832;SDS011;8533;48.426;10.868;2023-01-01T03:17:26;56.60;;;30.97;;
16832;SDS011;8533;48.426;10.868;2023-01-01T03:19:58;64.50;;;34.58;;
16832;SDS011;8533;48.426;10.868;2023-01-01T03:22:29;62.50;;;33.43;;
16832;SDS011;8533;48.426;10.868;2023-01-01T03:25:01;62.97;;;32.57;;
16832;SDS011;8533;48.426;10.868;2023-01-01T03:32:55;61.97;;;32.47;;
16832;SDS011;8533;48.426;10.868;2023-01-01T03:35:39;67.40;;;32.30;;
16832;SDS011;8533;48.426;10.868;2023-01-01T03:40:37;67.43;;;33.17;;
16832;SDS011;8533;48.426;10.868;2023-01-01T03:43:08;63.83;;;31.77;;
16832;SDS011;8533;48.426;10.868;2023-01-01T03:48:10;57.67;;;28.00;;
16832;SDS011;8533;48.426;10.868;2023-01-01T03:50:49;64.67;;;31.47;;
16832;SDS011;8533;48.426;10.868;2023-01-01T03:58:45;62.37;;;30.47;;
16832;SDS011;8533;48.426;10.868;2023-01-01T04:03:49;58.50;;;30.17;;
16832;SDS011;8533;48.426;10.868;2023-01-01T04:06:17;55.80;;;28.97;;
16832;SDS011;8533;48.426;10.868;2023-01-01T04:08:45;62.30;;;29.10;;
16832;SDS011;8533;48.426;10.868;2023-01-01T04:11:16;55.97;;;29.70;;
16832;SDS011;8533;48.426;10.868;2023-01-01T04:14:02;59.30;;;29.03;;
16832;SDS011;8533;48.426;10.868;2023-01-01T04:16:30;59.53;;;29.07;;
16832;SDS011;8533;48.426;10.868;2023-01-01T04:18:57;58.93;;;28.90;;
16832;SDS011;8533;48.426;10.868;2023-01-01T04:21:25;59.20;;;29.43;;
16832;SDS011;8533;48.426;10.868;2023-01-01T04:23:52;60.87;;;30.90;;
16832;SDS011;8533;48.426;10.868;2023-01-01T04:26:19;55.17;;;29.80;;
16832;SDS011;8533;48.426;10.868;2023-01-01T04:28:47;64.03;;;30.30;;
16832;SDS011;8533;48.426;10.868;2023-01-01T04:31:14;66.47;;;30.60;;
16832;SDS011;8533;48.426;10.868;2023-01-01T04:33:42;64.33;;;31.67;;
16832;SDS011;8533;48.426;10.868;2023-01-01T04:36:09;55.67;;;30.33;;
16832;SDS011;8533;48.426;10.868;2023-01-01T04:38:37;64.73;;;29.97;;
16832;SDS011;8533;48.426;10.868;2023-01-01T04:41:04;62.27;;;31.10;;
16832;SDS011;8533;48.426;10.868;2023-01-01T04:43:32;67.27;;;32.63;;
16832;SDS011;8533;48.426;10.868;2023-01-01T04:46:01;77.93;;;35.17;;
16832;SDS011;8533;48.426;10.868;2023-01-01T04:48:30;75.40;;;33.57;;
16832;SDS011;8533;48.426;10.868;2023-01-01T04:50:59;74.42;;;37.05;;
16832;SDS011;8533;48.426;10.868;2023-01-01T04:53:29;71.80;;;35.20;;
16832;SDS011;8533;48.426;10.868;2023-01-01T04:56:08;71.43;;;35.17;;
16832;SDS011;8533;48.426;10.868;2023-01-01T04:58:33;62.20;;;31.93;;
16832;SDS011;8533;48.426;10.868;2023-01-01T05:01:02;67.33;;;31.97;;
16832;SDS011;8533;48.426;10.868;2023-01-01T05:03:30;67.47;;;31.60;;
16832;SDS011;8533;48.426;10.868;2023-01-01T05:06:04;67.40;;;33.00;;
16832;SDS011;8533;48.426;10.868;2023-01-01T05:08:29;57.73;;;31.07;;
16832;SDS011;8533;48.426;10.868;2023-01-01T05:11:00;67.80;;;32.30;;
16832;SDS011;8533;48.426;10.868;2023-01-01T05:13:29;65.00;;;31.07;;
16832;SDS011;8533;48.426;10.868;2023-01-01T05:16:00;59.13;;;30.07;;
16832;SDS011;8533;48.426;10.868;2023-01-01T05:18:29;54.27;;;30.07;;
16832;SDS011;8533;48.426;10.868;2023-01-01T05:21:01;63.07;;;31.13;;
16832;SDS011;8533;48.426;10.868;2023-01-01T05:26:09;65.73;;;32.10;;
16832;SDS011;8533;48.426;10.868;2023-01-01T05:31:12;65.50;;;31.37;;
16832;SDS011;8533;48.426;10.868;2023-01-01T05:36:18;63.13;;;31.70;;
16832;SDS011;8533;48.426;10.868;2023-01-01T05:41:12;61.23;;;28.87;;
16832;SDS011;8533;48.426;10.868;2023-01-01T05:43:41;65.57;;;30.80;;
16832;SDS011;8533;48.426;10.868;2023-01-01T05:46:10;61.23;;;28.30;;
16832;SDS011;8533;48.426;10.868;2023-01-01T05:48:39;54.47;;;26.57;;
16832;SDS011;8533;48.426;10.868;2023-01-01T05:51:08;60.15;;;30.37;;
16832;SDS011;8533;48.426;10.868;2023-01-01T05:53:37;56.20;;;27.93;;
16832;SDS011;8533;48.426;10.868;2023-01-01T05:56:05;52.73;;;27.63;;
16832;SDS011;8533;48.426;10.868;2023-01-01T05:58:33;49.57;;;25.10;;
16832;SDS011;8533;48.426;10.868;2023-01-01T06:01:05;47.80;;;23.43;;
16832;SDS011;8533;48.426;10.868;2023-01-01T06:06:06;42.63;;;22.17;;
16832;SDS011;8533;48.426;10.868;2023-01-01T06:08:35;49.67;;;25.03;;
16832;SDS011;8533;48.426;10.868;2023-01-01T06:11:04;46.83;;;23.83;;
16832;SDS011;8533;48.426;10.868;2023-01-01T06:13:33;44.37;;;22.63;;
16832;SDS011;8533;48.426;10.868;2023-01-01T06:16:01;44.77;;;23.40;;
16832;SDS011;8533;48.426;10.868;2023-01-01T06:18:30;43.73;;;22.93;;
16832;SDS011;8533;48.426;10.868;2023-01-01T06:21:03;45.47;;;22.30;;
16832;SDS011;8533;48.426;10.868;2023-01-01T06:23:32;40.90;;;20.87;;
16832;SDS011;8533;48.426;10.868;2023-01-01T06:26:03;42.87;;;20.80;;
16832;SDS011;8533;48.426;10.868;2023-01-01T06:31:02;43.00;;;22.07;;
16832;SDS011;8533;48.426;10.868;2023-01-01T06:33:31;43.50;;;21.50;;
16832;SDS011;8533;48.426;10.868;2023-01-01T06:36:00;42.23;;;20.50;;
16832;SDS011;8533;48.426;10.868;2023-01-01T06:38:30;40.47;;;20.70;;
16832;SDS011;8533;48.426;10.868;2023-01-01T06:40:59;38.63;;;18.30;;
16832;SDS011;8533;48.426;10.868;2023-01-01T06:43:28;40.10;;;20.40;;
16832;SDS011;8533;48.426;10.868;2023-01-01T06:46:11;40.27;;;20.00;;
16832;SDS011;8533;48.426;10.868;2023-01-01T06:48:31;40.43;;;19.37;;
16832;SDS011;8533;48.426;10.868;2023-01-01T06:51:09;39.73;;;18.57;;
16832;SDS011;8533;48.426;10.868;2023-01-01T06:53:33;39.33;;;19.43;;
16832;SDS011;8533;48.426;10.868;2023-01-01T06:56:01;38.13;;;19.90;;
16832;SDS011;8533;48.426;10.868;2023-01-01T06:58:30;38.60;;;20.40;;
16832;SDS011;8533;48.426;10.868;2023-01-01T07:01:14;42.23;;;20.43;;
16832;SDS011;8533;48.426;10.868;2023-01-01T07:03:52;40.37;;;19.00;;
16832;SDS011;8533;48.426;10.868;2023-01-01T07:08:48;38.40;;;19.00;;
16832;SDS011;8533;48.426;10.868;2023-01-01T07:11:16;37.20;;;18.37;;
16832;SDS011;8533;48.426;10.868;2023-01-01T07:13:44;41.13;;;18.50;;
16832;SDS011;8533;48.426;10.868;2023-01-01T07:16:11;33.53;;;18.10;;
16832;SDS011;8533;48.426;10.868;2023-01-01T07:18:39;39.90;;;19.63;;
16832;SDS011;8533;48.426;10.868;2023-01-01T07:23:56;37.63;;;17.93;;
16832;SDS011;8533;48.426;10.868;2023-01-01T07:26:28;38.93;;;19.20;;
16832;SDS011;8533;48.426;10.868;2023-01-01T07:28:58;40.13;;;18.83;;
16832;SDS011;8533;48.426;10.868;2023-01-01T07:31:25;40.13;;;18.87;;
16832;SDS011;8533;48.426;10.868;2023-01-01T07:33:53;41.63;;;19.47;;
16832;SDS011;8533;48.426;10.868;2023-01-01T07:36:20;35.57;;;18.00;;
16832;SDS011;8533;48.426;10.868;2023-01-01T07:38:47;37.17;;;18.37;;
16832;SDS011;8533;48.426;10.868;2023-01-01T07:41:15;38.10;;;17.90;;
16832;SDS011;8533;48.426;10.868;2023-01-01T07:43:42;35.00;;;17.67;;
16832;SDS011;8533;48.426;10.868;2023-01-01T07:46:15;35.03;;;15.90;;
16832;SDS011;8533;48.426;10.868;2023-01-01T07:48:41;33.20;;;17.20;;
16832;SDS011;8533;48.426;10.868;2023-01-01T07:51:08;37.07;;;18.00;;
16832;SDS011;8533;48.426;10.868;2023-01-01T07:53:36;39.87;;;18.60;;
16832;SDS011;8533;48.426;10.868;2023-01-01T07:56:03;34.50;;;18.10;;
16832;SDS011;8533;48.426;10.868;2023-01-01T07:58:31;33.77;;;18.07;;
16832;SDS011;8533;48.426;10.868;2023-01-01T08:00:58;40.00;;;18.90;;
16832;SDS011;8533;48.426;10.868;2023-01-01T08:03:26;33.10;;;18.50;;
16832;SDS011;8533;48.426;10.868;2023-01-01T08:05:53;37.47;;;17.90;;
16832;SDS011;8533;48.426;10.868;2023-01-01T08:08:20;32.30;;;17.20;;
16832;SDS011;8533;48.426;10.868;2023-01-01T08:10:48;33.93;;;18.30;;
16832;SDS011;8533;48.426;10.868;2023-01-01T08:13:15;33.57;;;17.77;;
16832;SDS011;8533;48.426;10.868;2023-01-01T08:15:43;34.53;;;17.40;;
16832;SDS011;8533;48.426;10.868;2023-01-01T08:18:10;32.43;;;17.33;;
16832;SDS011;8533;48.426;10.868;2023-01-01T08:20:37;33.92;;;17.70;;
16832;SDS011;8533;48.426;10.868;2023-01-01T08:23:05;34.03;;;16.03;;
16832;SDS011;8533;48.426;10.868;2023-01-01T08:25:32;32.80;;;17.40;;
16832;SDS011;8533;48.426;10.868;2023-01-01T08:28:00;31.40;;;16.90;;
16832;SDS011;8533;48.426;10.868;2023-01-01T08:30:27;37.03;;;16.50;;
16832;SDS011;8533;48.426;10.868;2023-01-01T08:32:55;30.33;;;15.20;;
16832;SDS011;8533;48.426;10.868;2023-01-01T08:35:22;25.67;;;14.67;;
16832;SDS011;8533;48.426;10.868;2023-01-01T08:37:50;32.30;;;15.60;;
16832;SDS011;8533;48.426;10.868;2023-01-01T08:40:17;28.40;;;14.30;;
16832;SDS011;8533;48.426;10.868;2023-01-01T08:42:44;22.47;;;10.87;;
16832;SDS011;8533;48.426;10.868;2023-01-01T08:45:12;27.00;;;12.70;;
16832;SDS011;8533;48.426;10.868;2023-01-01T08:47:39;24.90;;;12.07;;
16832;SDS011;8533;48.426;10.868;2023-01-01T08:50:08;21.67;;;11.33;;
16832;SDS011;8533;48.426;10.868;2023-01-01T08:52:37;19.20;;;9.63;;
16832;SDS011;8533;48.426;10.868;2023-01-01T08:55:04;10.60;;;5.47;;
16832;SDS011;8533;48.426;10.868;2023-01-01T08:57:32;9.70;;;5.63;;
16832;SDS011;8533;48.426;10.868;2023-01-01T08:59:59;10.53;;;6.07;;
16832;SDS011;8533;48.426;10.868;2023-01-01T09:02:27;8.20;;;4.93;;
16832;SDS011;8533;48.426;10.868;2023-01-01T09:04:54;7.73;;;4.57;;
16832;SDS011;8533;48.426;10.868;2023-01-01T09:07:22;7.67;;;4.67;;
16832;SDS011;8533;48.426;10.868;2023-01-01T09:09:49;5.67;;;3.67;;
16832;SDS011;8533;48.426;10.868;2023-01-01T09:12:17;7.83;;;4.03;;
16832;SDS011;8533;48.426;10.868;2023-01-01T09:14:47;6.00;;;3.77;;
16832;SDS011;8533;48.426;10.868;2023-01-01T09:17:14;5.80;;;3.73;;
16832;SDS011;8533;48.426;10.868;2023-01-01T09:19:42;5.47;;;3.47;;
16832;SDS011;8533;48.426;10.868;2023-01-01T09:22:10;5.83;;;4.07;;
16832;SDS011;8533;48.426;10.868;2023-01-01T09:24:38;5.30;;;3.20;;
16832;SDS011;8533;48.426;10.868;2023-01-01T09:27:06;5.33;;;3.40;;
16832;SDS011;8533;48.426;10.868;2023-01-01T09:29:33;4.33;;;2.93;;
16832;SDS011;8533;48.426;10.868;2023-01-01T09:32:01;3.67;;;2.80;;
16832;SDS011;8533;48.426;10.868;2023-01-01T09:34:28;5.13;;;3.10;;
16832;SDS011;8533;48.426;10.868;2023-01-01T09:36:55;5.13;;;2.97;;
16832;SDS011;8533;48.426;10.868;2023-01-01T09:39:23;4.47;;;3.17;;
16832;SDS011;8533;48.426;10.868;2023-01-01T09:47:05;3.37;;;2.40;;
16832;SDS011;8533;48.426;10.868;2023-01-01T09:52:08;5.77;;;2.70;;
16832;SDS011;8533;48.426;10.868;2023-01-01T09:54:37;4.50;;;2.90;;
16832;SDS011;8533;48.426;10.868;2023-01-01T09:59:43;4.03;;;2.90;;
16832;SDS011;8533;48.426;10.868;2023-01-01T10:05:08;3.47;;;2.63;;
16832;SDS011;8533;48.426;10.868;2023-01-01T10:10:21;4.30;;;2.57;;
16832;SDS011;8533;48.426;10.868;2023-01-01T10:18:12;3.20;;;2.40;;
16832;SDS011;8533;48.426;10.868;2023-01-01T10:20:45;3.80;;;2.37;;
16832;SDS011;8533;48.426;10.868;2023-01-01T10:23:20;3.47;;;2.50;;
16832;SDS011;8533;48.426;10.868;2023-01-01T10:25:52;4.00;;;2.40;;
16832;SDS011;8533;48.426;10.868;2023-01-01T10:28:38;2.40;;;2.20;;
16832;SDS011;8533;48.426;10.868;2023-01-01T10:31:15;3.47;;;2.30;;
16832;SDS011;8533;48.426;10.868;2023-01-01T10:33:44;3.93;;;2.37;;
16832;SDS011;8533;48.426;10.868;2023-01-01T10:36:14;3.03;;;2.40;;
16832;SDS011;8533;48.426;10.868;2023-01-01T10:38:43;4.40;;;2.73;;
16832;SDS011;8533;48.426;10.868;2023-01-01T10:41:11;3.33;;;2.37;;
16832;SDS011;8533;48.426;10.868;2023-01-01T10:43:40;3.60;;;2.37;;
16832;SDS011;8533;48.426;10.868;2023-01-01T10:46:09;4.53;;;2.47;;
16832;SDS011;8533;48.426;10.868;2023-01-01T10:48:38;3.20;;;2.07;;
16832;SDS011;8533;48.426;10.868;2023-01-01T10:51:13;3.37;;;2.57;;
16832;SDS011;8533;48.426;10.868;2023-01-01T10:53:41;4.57;;;2.30;;
16832;SDS011;8533;48.426;10.868;2023-01-01T10:56:16;3.63;;;2.63;;
16832;SDS011;8533;48.426;10.868;2023-01-01T10:58:49;4.20;;;2.10;;
16832;SDS011;8533;48.426;10.868;2023-01-01T11:01:20;5.80;;;2.40;;
16832;SDS011;8533;48.426;10.868;2023-01-01T11:06:44;5.33;;;2.37;;
16832;SDS011;8533;48.426;10.868;2023-01-01T11:09:18;3.17;;;2.40;;
16832;SDS011;8533;48.426;10.868;2023-01-01T11:14:24;3.80;;;2.50;;
16832;SDS011;8533;48.426;10.868;2023-01-01T11:19:32;3.57;;;2.20;;
16832;SDS011;8533;48.426;10.868;2023-01-01T11:24:35;3.63;;;2.07;;
16832;SDS011;8533;48.426;10.868;2023-01-01T11:27:20;4.67;;;2.40;;
16832;SDS011;8533;48.426;10.868;2023-01-01T11:29:48;2.17;;;1.77;;
16832;SDS011;8533;48.426;10.868;2023-01-01T11:32:20;2.37;;;1.90;;
16832;SDS011;8533;48.426;10.868;2023-01-01T11:35:02;2.90;;;2.00;;
16832;SDS011;8533;48.426;10.868;2023-01-01T11:37:34;4.80;;;2.40;;
16832;SDS011;8533;48.426;10.868;2023-01-01T11:40:04;2.70;;;2.13;;
16832;SDS011;8533;48.426;10.868;2023-01-01T11:42:34;2.70;;;1.93;;
16832;SDS011;8533;48.426;10.868;2023-01-01T11:45:15;2.47;;;1.67;;
16832;SDS011;8533;48.426;10.868;2023-01-01T11:47:51;3.30;;;2.30;;
16832;SDS011;8533;48.426;10.868;2023-01-01T11:50:22;3.40;;;1.90;;
16832;SDS011;8533;48.426;10.868;2023-01-01T11:52:55;2.60;;;2.10;;
16832;SDS011;8533;48.426;10.868;2023-01-01T11:55:36;2.37;;;1.73;;
16832;SDS011;8533;48.426;10.868;2023-01-01T12:01:06;2.00;;;1.80;;
16832;SDS011;8533;48.426;10.868;2023-01-01T12:03:38;3.63;;;1.90;;
16832;SDS011;8533;48.426;10.868;2023-01-01T12:08:50;2.60;;;1.50;;
16832;SDS011;8533;48.426;10.868;2023-01-01T12:11:35;2.70;;;1.90;;
16832;SDS011;8533;48.426;10.868;2023-01-01T12:14:36;4.10;;;1.60;;
16832;SDS011;8533;48.426;10.868;2023-01-01T12:20:14;2.03;;;1.60;;
16832;SDS011;8533;48.426;10.868;2023-01-01T12:23:01;1.80;;;1.70;;
16832;SDS011;8533;48.426;10.868;2023-01-01T12:25:40;1.90;;;1.70;;
16832;SDS011;8533;48.426;10.868;2023-01-01T12:30:51;2.27;;;1.53;;
16832;SDS011;8533;48.426;10.868;2023-01-01T12:47:15;2.13;;;1.83;;
16832;SDS011;8533;48.426;10.868;2023-01-01T12:52:30;2.00;;;1.60;;
16832;SDS011;8533;48.426;10.868;2023-01-01T12:58:13;2.50;;;1.57;;
16832;SDS011;8533;48.426;10.868;2023-01-01T13:03:18;2.57;;;1.60;;
16832;SDS011;8533;48.426;10.868;2023-01-01T13:08:19;2.33;;;1.80;;
16832;SDS011;8533;48.426;10.868;2023-01-01T13:10:52;4.17;;;1.70;;
16832;SDS011;8533;48.426;10.868;2023-01-01T13:13:17;2.23;;;1.60;;
16832;SDS011;8533;48.426;10.868;2023-01-01T13:15:50;2.67;;;1.50;;
16832;SDS011;8533;48.426;10.868;2023-01-01T13:45:19;9.40;;;5.70;;
16832;SDS011;8533;48.426;10.868;2023-01-01T13:53:14;32.57;;;14.33;;
16832;SDS011;8533;48.426;10.868;2023-01-01T13:55:54;10.80;;;5.30;;
16832;SDS011;8533;48.426;10.868;2023-01-01T14:03:41;10.77;;;4.40;;
16832;SDS011;8533;48.426;10.868;2023-01-01T14:06:15;5.30;;;2.53;;
16832;SDS011;8533;48.426;10.868;2023-01-01T14:13:57;3.43;;;1.77;;
16832;SDS011;8533;48.426;10.868;2023-01-01T14:16:25;2.40;;;1.70;;
16832;SDS011;8533;48.426;10.868;2023-01-01T14:18:58;2.97;;;1.30;;
16832;SDS011;8533;48.426;10.868;2023-01-01T14:21:26;1.60;;;1.50;;
16832;SDS011;8533;48.426;10.868;2023-01-01T14:23:56;3.93;;;1.70;;
16832;SDS011;8533;48.426;10.868;2023-01-01T14:26:29;2.07;;;1.60;;
16832;SDS011;8533;48.426;10.868;2023-01-01T14:29:00;1.80;;;1.60;;
16832;SDS011;8533;48.426;10.868;2023-01-01T14:31:30;2.30;;;1.73;;
16832;SDS011;8533;48.426;10.868;2023-01-01T14:34:00;2.75;;;1.90;;
16832;SDS011;8533;48.426;10.868;2023-01-01T14:36:29;2.73;;;1.43;;
16832;SDS011;8533;48.426;10.868;2023-01-01T14:38:58;2.80;;;1.57;;
16832;SDS011;8533;48.426;10.868;2023-01-01T14:46:31;2.10;;;1.60;;
16832;SDS011;8533;48.426;10.868;2023-01-01T14:48:59;2.80;;;1.80;;
16832;SDS011;8533;48.426;10.868;2023-01-01T14:51:29;4.00;;;1.80;;
16832;SDS011;8533;48.426;10.868;2023-01-01T14:53:58;1.73;;;1.57;;
16832;SDS011;8533;48.426;10.868;2023-01-01T14:56:30;3.53;;;1.73;;
16832;SDS011;8533;48.426;10.868;2023-01-01T14:59:04;3.77;;;1.90;;
16832;SDS011;8533;48.426;10.868;2023-01-01T15:04:40;3.30;;;1.80;;
16832;SDS011;8533;48.426;10.868;2023-01-01T15:06:52;2.10;;;1.60;;
16832;SDS011;8533;48.426;10.868;2023-01-01T15:09:22;2.10;;;1.77;;
16832;SDS011;8533;48.426;10.868;2023-01-01T15:11:56;5.30;;;2.00;;
16832;SDS011;8533;48.426;10.868;2023-01-01T15:14:30;4.03;;;2.40;;
16832;SDS011;8533;48.426;10.868;2023-01-01T15:17:04;3.80;;;2.30;;
16832;SDS011;8533;48.426;10.868;2023-01-01T15:19:33;5.03;;;2.23;;
16832;SDS011;8533;48.426;10.868;2023-01-01T15:22:16;4.17;;;2.20;;
16832;SDS011;8533;48.426;10.868;2023-01-01T15:27:17;3.80;;;2.30;;
16832;SDS011;8533;48.426;10.868;2023-01-01T15:29:44;3.33;;;2.03;;
16832;SDS011;8533;48.426;10.868;2023-01-01T15:32:13;2.93;;;2.03;;
16832;SDS011;8533;48.426;10.868;2023-01-01T15:34:41;4.73;;;2.17;;
16832;SDS011;8533;48.426;10.868;2023-01-01T15:37:16;3.10;;;2.10;;
16832;SDS011;8533;48.426;10.868;2023-01-01T15:42:34;4.47;;;2.00;;
16832;SDS011;8533;48.426;10.868;2023-01-01T15:45:12;5.93;;;3.17;;
16832;SDS011;8533;48.426;10.868;2023-01-01T15:47:49;6.40;;;3.90;;
16832;SDS011;8533;48.426;10.868;2023-01-01T15:50:23;10.10;;;4.70;;
16832;SDS011;8533;48.426;10.868;2023-01-01T15:52:55;6.73;;;4.00;;
16832;SDS011;8533;48.426;10.868;2023-01-01T15:55:27;9.10;;;4.17;;
16832;SDS011;8533;48.426;10.868;2023-01-01T15:57:56;5.83;;;3.73;;
16832;SDS011;8533;48.426;10.868;2023-01-01T16:00:25;5.70;;;3.80;;
16832;SDS011;8533;48.426;10.868;2023-01-01T16:02:57;9.57;;;4.83;;
16832;SDS011;8533;48.426;10.868;2023-01-01T16:05:28;6.53;;;3.90;;
16832;SDS011;8533;48.426;10.868;2023-01-01T16:07:57;6.93;;;4.27;;
16832;SDS011;8533;48.426;10.868;2023-01-01T16:10:28;6.47;;;4.10;;
16832;SDS011;8533;48.426;10.868;2023-01-01T16:12:57;6.53;;;4.47;;
16832;SDS011;8533;48.426;10.868;2023-01-01T16:15:24;7.30;;;3.70;;
16832;SDS011;8533;48.426;10.868;2023-01-01T16:17:52;5.77;;;3.80;;
16832;SDS011;8533;48.426;10.868;2023-01-01T16:20:20;6.07;;;3.83;;
16832;SDS011;8533;48.426;10.868;2023-01-01T16:22:47;7.43;;;4.10;;
16832;SDS011;8533;48.426;10.868;2023-01-01T16:25:21;5.73;;;3.50;;
16832;SDS011;8533;48.426;10.868;2023-01-01T16:27:45;7.07;;;4.10;;
16832;SDS011;8533;48.426;10.868;2023-01-01T16:30:13;5.47;;;4.00;;
16832;SDS011;8533;48.426;10.868;2023-01-01T16:32:41;6.83;;;4.07;;
16832;SDS011;8533;48.426;10.868;2023-01-01T16:35:11;6.63;;;4.20;;
16832;SDS011;8533;48.426;10.868;2023-01-01T16:37:39;7.63;;;4.47;;
16832;SDS011;8533;48.426;10.868;2023-01-01T16:40:06;10.07;;;5.57;;
16832;SDS011;8533;48.426;10.868;2023-01-01T16:42:34;8.57;;;5.03;;
16832;SDS011;8533;48.426;10.868;2023-01-01T16:45:02;12.60;;;5.73;;
16832;SDS011;8533;48.426;10.868;2023-01-01T16:47:29;13.80;;;7.70;;
16832;SDS011;8533;48.426;10.868;2023-01-01T16:49:57;14.87;;;6.80;;
16832;SDS011;8533;48.426;10.868;2023-01-01T16:52:25;17.63;;;9.17;;
16832;SDS011;8533;48.426;10.868;2023-01-01T16:54:54;13.63;;;8.07;;
16832;SDS011;8533;48.426;10.868;2023-01-01T16:57:21;15.13;;;8.50;;
16832;SDS011;8533;48.426;10.868;2023-01-01T16:59:49;14.23;;;8.30;;
16832;SDS011;8533;48.426;10.868;2023-01-01T17:02:16;12.63;;;8.60;;
16832;SDS011;8533;48.426;10.868;2023-01-01T17:04:43;15.10;;;8.87;;
16832;SDS011;8533;48.426;10.868;2023-01-01T17:07:11;12.97;;;7.97;;
16832;SDS011;8533;48.426;10.868;2023-01-01T17:09:38;14.53;;;8.07;;
16832;SDS011;8533;48.426;10.868;2023-01-01T17:12:07;15.03;;;8.00;;
16832;SDS011;8533;48.426;10.868;2023-01-01T17:14:35;12.60;;;8.03;;
16832;SDS011;8533;48.426;10.868;2023-01-01T17:17:02;14.30;;;7.67;;
16832;SDS011;8533;48.426;10.868;2023-01-01T17:19:29;12.27;;;7.70;;
16832;SDS011;8533;48.426;10.868;2023-01-01T17:21:57;10.10;;;6.77;;
16832;SDS011;8533;48.426;10.868;2023-01-01T17:24:25;14.47;;;7.47;;
16832;SDS011;8533;48.426;10.868;2023-01-01T17:26:53;11.43;;;7.37;;
16832;SDS011;8533;48.426;10.868;2023-01-01T17:29:20;11.90;;;7.40;;
16832;SDS011;8533;48.426;10.868;2023-01-01T17:31:48;15.77;;;7.50;;
16832;SDS011;8533;48.426;10.868;2023-01-01T17:34:16;12.13;;;7.17;;
16832;SDS011;8533;48.426;10.868;2023-01-01T17:36:44;12.83;;;7.57;;
16832;SDS011;8533;48.426;10.868;2023-01-01T17:39:12;18.27;;;8.90;;
16832;SDS011;8533;48.426;10.868;2023-01-01T17:41:40;17.37;;;9.00;;
16832;SDS011;8533;48.426;10.868;2023-01-01T17:44:09;16.07;;;9.60;;
16832;SDS011;8533;48.426;10.868;2023-01-01T17:46:36;16.10;;;8.80;;
16832;SDS011;8533;48.426;10.868;2023-01-01T17:49:05;17.70;;;10.30;;
16832;SDS011;8533;48.426;10.868;2023-01-01T17:51:33;22.50;;;11.73;;
16832;SDS011;8533;48.426;10.868;2023-01-01T17:54:00;21.47;;;11.43;;
16832;SDS011;8533;48.426;10.868;2023-01-01T17:56:29;23.33;;;11.70;;
16832;SDS011;8533;48.426;10.868;2023-01-01T17:58:57;21.17;;;10.50;;
16832;SDS011;8533;48.426;10.868;2023-01-01T18:01:28;21.33;;;12.10;;
16832;SDS011;8533;48.426;10.868;2023-01-01T18:04:01;27.40;;;14.93;;